sensor_id;sensor_type;location;lat;lon;timestamp;pressure;altitude;pressure_sealevel;temperature;humidity
40948;BME280;49382;-25.924;28.194;2022-12-07T00:01:06;85055.46;;;17.06;54.55
40948;BME280;49382;-25.924;28.194;2022-12-07T00:03:30;85078.39;;;16.21;55.84
40948;BME280;49382;-25.924;28.194;2022-12-07T00:05:58;85116.72;;;15.75;56.54
40948;BME280;49382;-25.924;28.194;2022-12-07T00:08:22;85105.74;;;16.16;54.26
40948;BME280;49382;-25.924;28.194;2022-12-07T00:10:48;85129.26;;;16.91;51.54
40948;BME280;49382;-25.924;28.194;2022-12-07T00:13:14;85119.15;;;16.32;54.28
40948;BME280;49382;-25.924;28.194;2022-12-07T00:15:39;85122.91;;;16.46;54.62
40948;BME280;49382;-25.924;28.194;2022-12-07T00:18:05;85125.32;;;15.92;55.07
40948;BME280;49382;-25.924;28.194;2022-12-07T00:20:31;85116.61;;;16.39;53.82
40948;BME280;49382;-25.924;28.194;2022-12-07T00:22:57;85114.93;;;15.92;54.73
40948;BME280;49382;-25.924;28.194;2022-12-07T00:25:23;85119.12;;;16.33;54.00
40948;BME280;49382;-25.924;28.194;2022-12-07T00:27:48;85107.28;;;16.24;53.99
40948;BME280;49382;-25.924;28.194;2022-12-07T00:30:15;85103.74;;;16.61;52.68
40948;BME280;49382;-25.924;28.194;2022-12-07T00:32:40;85092.32;;;16.56;52.45
40948;BME280;49382;-25.924;28.194;2022-12-07T00:35:06;85100.18;;;16.79;52.36
40948;BME280;49382;-25.924;28.194;2022-12-07T00:37:31;85092.05;;;17.49;50.10
40948;BME280;49382;-25.924;28.194;2022-12-07T00:39:57;85094.32;;;17.13;50.77
40948;BME280;49382;-25.924;28.194;2022-12-07T00:42:23;85097.55;;;16.50;52.60
40948;BME280;49382;-25.924;28.194;2022-12-07T00:44:49;85096.36;;;16.32;53.27
40948;BME280;49382;-25.924;28.194;2022-12-07T00:47:15;85099.77;;;16.56;52.86
40948;BME280;49382;-25.924;28.194;2022-12-07T00:49:40;85101.73;;;16.15;53.96
40948;BME280;49382;-25.924;28.194;2022-12-07T00:52:06;85103.69;;;16.52;52.56
40948;BME280;49382;-25.924;28.194;2022-12-07T00:54:31;85102.01;;;17.45;50.25
40948;BME280;49382;-25.924;28.194;2022-12-07T00:56:57;85109.26;;;16.12;54.03
40948;BME280;49382;-25.924;28.194;2022-12-07T00:59:23;85110.30;;;15.98;53.71
40948;BME280;49382;-25.924;28.194;2022-12-07T01:01:49;85095.07;;;16.05;53.69
40948;BME280;49382;-25.924;28.194;2022-12-07T01:04:15;85084.21;;;15.18;56.38
40948;BME280;49382;-25.924;28.194;2022-12-07T01:06:41;85087.49;;;15.49;55.06
40948;BME280;49382;-25.924;28.194;2022-12-07T01:09:06;85093.54;;;15.81;54.56
40948;BME280;49382;-25.924;28.194;2022-12-07T01:11:32;85102.05;;;14.94;56.42
40948;BME280;49382;-25.924;28.194;2022-12-07T01:14:00;85109.08;;;15.25;55.54
40948;BME280;49382;-25.924;28.194;2022-12-07T01:16:25;85102.49;;;15.45;54.47
40948;BME280;49382;-25.924;28.194;2022-12-07T01:18:50;85091.30;;;16.13;52.95
40948;BME280;49382;-25.924;28.194;2022-12-07T01:21:15;85093.55;;;15.56;53.51
40948;BME280;49382;-25.924;28.194;2022-12-07T01:23:39;85095.59;;;15.58;53.62
40948;BME280;49382;-25.924;28.194;2022-12-07T01:26:07;85093.77;;;15.55;53.20
40948;BME280;49382;-25.924;28.194;2022-12-07T01:28:31;85098.09;;;16.14;52.13
40948;BME280;49382;-25.924;28.194;2022-12-07T01:30:58;85097.97;;;15.02;54.51
40948;BME280;49382;-25.924;28.194;2022-12-07T01:33:22;85099.13;;;16.59;51.16
40948;BME280;49382;-25.924;28.194;2022-12-07T01:35:48;85096.37;;;16.30;51.46
40948;BME280;49382;-25.924;28.194;2022-12-07T01:38:14;85096.65;;;15.36;53.56
40948;BME280;49382;-25.924;28.194;2022-12-07T01:40:40;85100.02;;;15.94;49.11
40948;BME280;49382;-25.924;28.194;2022-12-07T01:43:13;85094.64;;;16.01;49.77
40948;BME280;49382;-25.924;28.194;2022-12-07T01:45:38;85105.69;;;15.10;51.93
40948;BME280;49382;-25.924;28.194;2022-12-07T01:47:58;85121.14;;;15.09;53.01
40948;BME280;49382;-25.924;28.194;2022-12-07T01:50:25;85120.23;;;15.10;52.99
40948;BME280;49382;-25.924;28.194;2022-12-07T01:52:50;85119.87;;;15.13;52.78
40948;BME280;49382;-25.924;28.194;2022-12-07T01:55:15;85115.27;;;15.66;50.89
40948;BME280;49382;-25.924;28.194;2022-12-07T01:57:43;85116.22;;;16.51;49.86
40948;BME280;49382;-25.924;28.194;2022-12-07T02:00:07;85104.96;;;15.66;51.10
40948;BME280;49382;-25.924;28.194;2022-12-07T02:02:35;85090.03;;;16.64;47.79
40948;BME280;49382;-25.924;28.194;2022-12-07T02:04:59;85102.77;;;15.89;48.80
40948;BME280;49382;-25.924;28.194;2022-12-07T02:07:24;85114.03;;;16.12;48.74
40948;BME280;49382;-25.924;28.194;2022-12-07T02:09:49;85131.06;;;15.96;48.82
40948;BME280;49382;-25.924;28.194;2022-12-07T02:12:15;85127.12;;;15.97;49.22
40948;BME280;49382;-25.924;28.194;2022-12-07T02:14:40;85131.17;;;15.85;49.66
40948;BME280;49382;-25.924;28.194;2022-12-07T02:17:12;85119.65;;;16.31;49.50
40948;BME280;49382;-25.924;28.194;2022-12-07T02:22:11;85109.07;;;15.60;50.30
40948;BME280;49382;-25.924;28.194;2022-12-07T02:24:36;85108.70;;;16.14;49.54
40948;BME280;49382;-25.924;28.194;2022-12-07T02:29:21;85123.71;;;15.77;49.43
40948;BME280;49382;-25.924;28.194;2022-12-07T02:31:46;85125.38;;;15.66;50.54
40948;BME280;49382;-25.924;28.194;2022-12-07T02:34:11;85135.53;;;15.20;50.94
40948;BME280;49382;-25.924;28.194;2022-12-07T02:36:36;85139.37;;;15.32;50.53
40948;BME280;49382;-25.924;28.194;2022-12-07T02:39:02;85140.48;;;15.58;50.52
40948;BME280;49382;-25.924;28.194;2022-12-07T02:41:29;85153.13;;;15.42;50.82
40948;BME280;49382;-25.924;28.194;2022-12-07T02:43:53;85159.46;;;15.19;51.07
40948;BME280;49382;-25.924;28.194;2022-12-07T02:46:20;85159.51;;;14.77;52.45
40948;BME280;49382;-25.924;28.194;2022-12-07T02:48:42;85158.34;;;14.89;52.32
40948;BME280;49382;-25.924;28.194;2022-12-07T02:51:06;85161.85;;;15.04;52.06
40948;BME280;49382;-25.924;28.194;2022-12-07T02:53:34;85171.54;;;15.14;51.93
40948;BME280;49382;-25.924;28.194;2022-12-07T02:55:59;85179.80;;;14.64;53.90
40948;BME280;49382;-25.924;28.194;2022-12-07T02:58:32;85181.41;;;14.70;53.60
40948;BME280;49382;-25.924;28.194;2022-12-07T03:00:57;85190.04;;;14.71;54.28
40948;BME280;49382;-25.924;28.194;2022-12-07T03:03:16;85198.65;;;14.76;54.06
40948;BME280;49382;-25.924;28.194;2022-12-07T03:05:51;85203.21;;;14.78;54.07
40948;BME280;49382;-25.924;28.194;2022-12-07T03:08:12;85206.38;;;14.96;53.16
40948;BME280;49382;-25.924;28.194;2022-12-07T03:10:39;85202.04;;;15.18;52.99
40948;BME280;49382;-25.924;28.194;2022-12-07T03:13:04;85199.29;;;15.28;53.32
40948;BME280;49382;-25.924;28.194;2022-12-07T03:15:31;85195.84;;;15.53;52.46
40948;BME280;49382;-25.924;28.194;2022-12-07T03:17:51;85188.69;;;15.42;52.49
40948;BME280;49382;-25.924;28.194;2022-12-07T03:20:19;85186.55;;;16.13;51.15
40948;BME280;49382;-25.924;28.194;2022-12-07T03:22:43;85190.90;;;15.68;53.06
40948;BME280;49382;-25.924;28.194;2022-12-07T03:25:10;85195.94;;;15.37;52.95
40948;BME280;49382;-25.924;28.194;2022-12-07T03:27:35;85200.12;;;15.52;52.92
40948;BME280;49382;-25.924;28.194;2022-12-07T03:30:02;85194.26;;;15.31;54.45
40948;BME280;49382;-25.924;28.194;2022-12-07T03:32:25;85192.73;;;15.13;53.18
40948;BME280;49382;-25.924;28.194;2022-12-07T03:34:52;85189.65;;;16.44;51.47
40948;BME280;49382;-25.924;28.194;2022-12-07T03:37:18;85189.40;;;15.05;52.76
40948;BME280;49382;-25.924;28.194;2022-12-07T03:42:09;85196.99;;;15.72;51.39
40948;BME280;49382;-25.924;28.194;2022-12-07T03:44:34;85206.70;;;16.30;50.95
40948;BME280;49382;-25.924;28.194;2022-12-07T03:47:02;85209.92;;;15.96;51.19
40948;BME280;49382;-25.924;28.194;2022-12-07T03:49:27;85209.42;;;15.69;51.04
40948;BME280;49382;-25.924;28.194;2022-12-07T03:51:54;85211.42;;;15.71;51.92
40948;BME280;49382;-25.924;28.194;2022-12-07T03:54:21;85216.57;;;15.61;51.78
40948;BME280;49382;-25.924;28.194;2022-12-07T03:56:43;85212.85;;;16.18;50.70
40948;BME280;49382;-25.924;28.194;2022-12-07T03:59:08;85213.45;;;15.82;50.66
40948;BME280;49382;-25.924;28.194;2022-12-07T04:01:34;85213.26;;;16.35;49.84
40948;BME280;49382;-25.924;28.194;2022-12-07T04:04:00;85212.20;;;16.82;49.13
40948;BME280;49382;-25.924;28.194;2022-12-07T04:06:25;85207.94;;;16.19;50.76
40948;BME280;49382;-25.924;28.194;2022-12-07T04:08:51;85219.45;;;16.37;50.24
40948;BME280;49382;-25.924;28.194;2022-12-07T04:11:17;85226.34;;;17.28;48.29
40948;BME280;49382;-25.924;28.194;2022-12-07T04:13:43;85223.80;;;15.86;51.20
40948;BME280;49382;-25.924;28.194;2022-12-07T04:16:09;85219.96;;;16.79;49.86
40948;BME280;49382;-25.924;28.194;2022-12-07T04:18:35;85224.70;;;16.81;49.13
40948;BME280;49382;-25.924;28.194;2022-12-07T04:20:59;85235.11;;;16.51;49.80
40948;BME280;49382;-25.924;28.194;2022-12-07T04:23:25;85237.69;;;15.99;51.15
40948;BME280;49382;-25.924;28.194;2022-12-07T04:25:51;85240.47;;;16.14;51.79
40948;BME280;49382;-25.924;28.194;2022-12-07T04:28:17;85235.96;;;15.94;51.83
40948;BME280;49382;-25.924;28.194;2022-12-07T04:30:43;85234.20;;;16.03;51.70
40948;BME280;49382;-25.924;28.194;2022-12-07T04:33:09;85231.04;;;15.69;51.22
40948;BME280;49382;-25.924;28.194;2022-12-07T04:35:34;85237.61;;;15.82;50.59
40948;BME280;49382;-25.924;28.194;2022-12-07T04:38:00;85247.59;;;15.78;51.52
40948;BME280;49382;-25.924;28.194;2022-12-07T04:40:25;85249.71;;;16.31;51.11
40948;BME280;49382;-25.924;28.194;2022-12-07T04:42:51;85255.37;;;15.88;51.46
40948;BME280;49382;-25.924;28.194;2022-12-07T04:45:17;85246.72;;;16.46;50.34
40948;BME280;49382;-25.924;28.194;2022-12-07T04:47:43;85249.04;;;16.91;49.72
40948;BME280;49382;-25.924;28.194;2022-12-07T04:50:10;85245.57;;;16.26;50.53
40948;BME280;49382;-25.924;28.194;2022-12-07T04:52:34;85246.13;;;15.93;51.74
40948;BME280;49382;-25.924;28.194;2022-12-07T04:55:00;85247.02;;;17.06;49.23
40948;BME280;49382;-25.924;28.194;2022-12-07T04:57:25;85254.10;;;16.67;50.14
40948;BME280;49382;-25.924;28.194;2022-12-07T04:59:51;85262.48;;;16.41;51.97
40948;BME280;49382;-25.924;28.194;2022-12-07T05:02:17;85268.15;;;16.29;50.08
40948;BME280;49382;-25.924;28.194;2022-12-07T05:04:43;85267.91;;;16.49;50.92
40948;BME280;49382;-25.924;28.194;2022-12-07T05:07:08;85267.82;;;16.20;51.07
40948;BME280;49382;-25.924;28.194;2022-12-07T05:09:34;85270.87;;;16.84;51.92
40948;BME280;49382;-25.924;28.194;2022-12-07T05:12:00;85278.18;;;17.24;51.99
40948;BME280;49382;-25.924;28.194;2022-12-07T05:14:26;85279.76;;;16.85;51.59
40948;BME280;49382;-25.924;28.194;2022-12-07T05:16:52;85281.20;;;17.11;50.89
40948;BME280;49382;-25.924;28.194;2022-12-07T05:19:18;85281.76;;;16.93;51.39
40948;BME280;49382;-25.924;28.194;2022-12-07T05:21:43;85289.04;;;17.21;51.42
40948;BME280;49382;-25.924;28.194;2022-12-07T05:24:11;85293.31;;;17.46;51.92
40948;BME280;49382;-25.924;28.194;2022-12-07T05:26:35;85293.79;;;17.69;50.20
40948;BME280;49382;-25.924;28.194;2022-12-07T05:29:00;85296.26;;;18.08;48.85
40948;BME280;49382;-25.924;28.194;2022-12-07T05:31:26;85297.73;;;18.33;50.21
40948;BME280;49382;-25.924;28.194;2022-12-07T05:33:52;85302.55;;;17.80;50.02
40948;BME280;49382;-25.924;28.194;2022-12-07T05:36:17;85304.11;;;17.81;48.98
40948;BME280;49382;-25.924;28.194;2022-12-07T05:38:43;85307.85;;;17.85;48.75
40948;BME280;49382;-25.924;28.194;2022-12-07T05:41:11;85303.92;;;18.30;48.76
40948;BME280;49382;-25.924;28.194;2022-12-07T05:43:35;85309.75;;;18.08;49.93
40948;BME280;49382;-25.924;28.194;2022-12-07T05:46:01;85305.24;;;17.92;50.45
40948;BME280;49382;-25.924;28.194;2022-12-07T05:48:27;85309.37;;;17.91;51.57
40948;BME280;49382;-25.924;28.194;2022-12-07T05:50:52;85307.06;;;18.70;52.59
40948;BME280;49382;-25.924;28.194;2022-12-07T05:53:18;85302.04;;;18.79;50.36
40948;BME280;49382;-25.924;28.194;2022-12-07T05:55:44;85303.03;;;18.84;49.07
40948;BME280;49382;-25.924;28.194;2022-12-07T05:58:09;85306.82;;;20.92;46.51
40948;BME280;49382;-25.924;28.194;2022-12-07T06:00:35;85304.50;;;20.05;46.75
40948;BME280;49382;-25.924;28.194;2022-12-07T06:03:00;85300.80;;;18.63;48.25
40948;BME280;49382;-25.924;28.194;2022-12-07T06:05:26;85309.49;;;19.42;49.36
40948;BME280;49382;-25.924;28.194;2022-12-07T06:07:52;85304.77;;;19.05;49.73
40948;BME280;49382;-25.924;28.194;2022-12-07T06:10:18;85301.45;;;19.04;53.71
40948;BME280;49382;-25.924;28.194;2022-12-07T06:12:44;85298.79;;;19.20;49.94
40948;BME280;49382;-25.924;28.194;2022-12-07T06:15:10;85294.76;;;19.44;48.34
40948;BME280;49382;-25.924;28.194;2022-12-07T06:17:35;85294.65;;;21.72;45.42
40948;BME280;49382;-25.924;28.194;2022-12-07T06:20:01;85294.03;;;20.29;46.65
40948;BME280;49382;-25.924;28.194;2022-12-07T06:22:27;85292.86;;;19.77;47.79
40948;BME280;49382;-25.924;28.194;2022-12-07T06:24:53;85290.71;;;20.40;45.74
40948;BME280;49382;-25.924;28.194;2022-12-07T06:27:18;85293.02;;;20.12;48.10
40948;BME280;49382;-25.924;28.194;2022-12-07T06:29:44;85296.51;;;20.08;47.30
40948;BME280;49382;-25.924;28.194;2022-12-07T06:32:10;85295.39;;;20.42;45.03
40948;BME280;49382;-25.924;28.194;2022-12-07T06:34:36;85292.22;;;20.17;46.61
40948;BME280;49382;-25.924;28.194;2022-12-07T06:37:01;85289.37;;;18.72;47.94
40948;BME280;49382;-25.924;28.194;2022-12-07T06:39:28;85286.50;;;19.52;49.74
40948;BME280;49382;-25.924;28.194;2022-12-07T06:41:54;85290.79;;;19.80;49.17
40948;BME280;49382;-25.924;28.194;2022-12-07T06:44:19;85282.94;;;19.31;46.97
40948;BME280;49382;-25.924;28.194;2022-12-07T06:46:44;85285.41;;;22.36;42.87
40948;BME280;49382;-25.924;28.194;2022-12-07T06:49:10;85282.93;;;21.24;44.90
40948;BME280;49382;-25.924;28.194;2022-12-07T06:51:36;85281.23;;;20.66;44.87
40948;BME280;49382;-25.924;28.194;2022-12-07T06:54:02;85279.86;;;20.90;45.57
40948;BME280;49382;-25.924;28.194;2022-12-07T06:56:27;85284.53;;;20.24;45.04
40948;BME280;49382;-25.924;28.194;2022-12-07T06:58:53;85284.04;;;20.58;43.37
40948;BME280;49382;-25.924;28.194;2022-12-07T07:01:19;85289.17;;;20.93;44.62
40948;BME280;49382;-25.924;28.194;2022-12-07T07:03:45;85283.76;;;20.42;46.57
40948;BME280;49382;-25.924;28.194;2022-12-07T07:06:11;85279.71;;;21.14;44.26
40948;BME280;49382;-25.924;28.194;2022-12-07T07:08:38;85275.29;;;19.74;44.79
40948;BME280;49382;-25.924;28.194;2022-12-07T07:11:03;85274.49;;;20.53;47.50
40948;BME280;49382;-25.924;28.194;2022-12-07T07:13:28;85271.62;;;21.12;44.95
40948;BME280;49382;-25.924;28.194;2022-12-07T07:15:54;85274.96;;;21.23;43.21
40948;BME280;49382;-25.924;28.194;2022-12-07T07:18:20;85268.84;;;20.77;43.40
40948;BME280;49382;-25.924;28.194;2022-12-07T07:20:45;85270.36;;;21.21;43.27
40948;BME280;49382;-25.924;28.194;2022-12-07T07:23:11;85265.61;;;20.96;43.48
40948;BME280;49382;-25.924;28.194;2022-12-07T07:25:36;85263.91;;;21.45;42.58
40948;BME280;49382;-25.924;28.194;2022-12-07T07:28:03;85262.34;;;22.82;39.95
40948;BME280;49382;-25.924;28.194;2022-12-07T07:30:28;85261.40;;;22.07;41.96
40948;BME280;49382;-25.924;28.194;2022-12-07T07:32:57;85267.96;;;22.58;42.44
40948;BME280;49382;-25.924;28.194;2022-12-07T07:35:19;85267.85;;;22.17;41.05
40948;BME280;49382;-25.924;28.194;2022-12-07T07:37:45;85271.83;;;22.43;42.10
40948;BME280;49382;-25.924;28.194;2022-12-07T07:40:11;85273.68;;;22.81;40.72
40948;BME280;49382;-25.924;28.194;2022-12-07T07:42:37;85271.68;;;23.92;38.92
40948;BME280;49382;-25.924;28.194;2022-12-07T07:45:03;85270.64;;;24.22;40.43
40948;BME280;49382;-25.924;28.194;2022-12-07T07:47:28;85268.71;;;22.11;40.16
40948;BME280;49382;-25.924;28.194;2022-12-07T07:49:54;85269.14;;;22.71;39.96
40948;BME280;49382;-25.924;28.194;2022-12-07T07:52:20;85264.35;;;22.69;39.45
40948;BME280;49382;-25.924;28.194;2022-12-07T07:54:45;85264.66;;;22.90;38.41
40948;BME280;49382;-25.924;28.194;2022-12-07T07:57:11;85260.75;;;22.66;38.14
40948;BME280;49382;-25.924;28.194;2022-12-07T07:59:37;85256.77;;;22.12;41.72
40948;BME280;49382;-25.924;28.194;2022-12-07T08:02:03;85252.66;;;22.71;38.63
40948;BME280;49382;-25.924;28.194;2022-12-07T08:04:29;85247.71;;;23.25;41.02
40948;BME280;49382;-25.924;28.194;2022-12-07T08:06:54;85246.80;;;23.37;39.42
40948;BME280;49382;-25.924;28.194;2022-12-07T08:09:20;85239.69;;;23.02;40.94
40948;BME280;49382;-25.924;28.194;2022-12-07T08:11:46;85237.50;;;23.44;39.64
40948;BME280;49382;-25.924;28.194;2022-12-07T08:14:11;85236.85;;;23.03;42.15
40948;BME280;49382;-25.924;28.194;2022-12-07T08:16:38;85234.26;;;23.36;37.67
40948;BME280;49382;-25.924;28.194;2022-12-07T08:19:05;85233.06;;;22.37;39.51
40948;BME280;49382;-25.924;28.194;2022-12-07T08:21:29;85223.47;;;23.11;37.30
40948;BME280;49382;-25.924;28.194;2022-12-07T08:23:54;85227.65;;;24.08;37.05
40948;BME280;49382;-25.924;28.194;2022-12-07T08:26:20;85228.62;;;23.96;38.61
40948;BME280;49382;-25.924;28.194;2022-12-07T08:28:46;85231.16;;;24.05;37.68
40948;BME280;49382;-25.924;28.194;2022-12-07T08:31:14;85230.03;;;24.52;37.36
40948;BME280;49382;-25.924;28.194;2022-12-07T08:33:38;85224.53;;;23.35;38.08
40948;BME280;49382;-25.924;28.194;2022-12-07T08:36:05;85226.67;;;23.43;36.56
40948;BME280;49382;-25.924;28.194;2022-12-07T08:38:29;85226.97;;;23.78;37.96
40948;BME280;49382;-25.924;28.194;2022-12-07T08:40:55;85225.98;;;22.93;35.74
40948;BME280;49382;-25.924;28.194;2022-12-07T08:43:20;85223.90;;;23.21;37.66
40948;BME280;49382;-25.924;28.194;2022-12-07T08:45:47;85221.09;;;24.98;34.42
40948;BME280;49382;-25.924;28.194;2022-12-07T08:48:14;85226.70;;;24.12;34.81
40948;BME280;49382;-25.924;28.194;2022-12-07T08:50:38;85224.00;;;24.58;35.17
40948;BME280;49382;-25.924;28.194;2022-12-07T08:53:04;85229.42;;;25.09;33.62
40948;BME280;49382;-25.924;28.194;2022-12-07T08:55:29;85225.53;;;23.42;35.10
40948;BME280;49382;-25.924;28.194;2022-12-07T08:57:55;85218.88;;;25.09;33.44
40948;BME280;49382;-25.924;28.194;2022-12-07T09:00:21;85217.74;;;24.15;33.81
40948;BME280;49382;-25.924;28.194;2022-12-07T09:02:46;85218.71;;;24.86;34.48
40948;BME280;49382;-25.924;28.194;2022-12-07T09:05:11;85217.79;;;25.97;33.85
40948;BME280;49382;-25.924;28.194;2022-12-07T09:07:37;85217.97;;;24.43;36.16
40948;BME280;49382;-25.924;28.194;2022-12-07T09:10:04;85213.06;;;24.62;37.09
40948;BME280;49382;-25.924;28.194;2022-12-07T09:12:28;85212.96;;;24.80;36.26
40948;BME280;49382;-25.924;28.194;2022-12-07T09:14:54;85215.09;;;25.36;35.92
40948;BME280;49382;-25.924;28.194;2022-12-07T09:17:20;85215.48;;;25.65;34.33
40948;BME280;49382;-25.924;28.194;2022-12-07T09:19:46;85214.33;;;25.13;35.21
40948;BME280;49382;-25.924;28.194;2022-12-07T09:22:11;85213.73;;;26.10;33.15
40948;BME280;49382;-25.924;28.194;2022-12-07T09:24:37;85211.06;;;26.25;35.51
40948;BME280;49382;-25.924;28.194;2022-12-07T09:27:03;85207.53;;;26.37;34.87
40948;BME280;49382;-25.924;28.194;2022-12-07T09:29:28;85207.39;;;25.72;37.44
40948;BME280;49382;-25.924;28.194;2022-12-07T09:31:54;85202.68;;;24.80;35.63
40948;BME280;49382;-25.924;28.194;2022-12-07T09:34:20;85202.10;;;24.36;34.60
40948;BME280;49382;-25.924;28.194;2022-12-07T09:36:46;85199.86;;;24.32;35.08
40948;BME280;49382;-25.924;28.194;2022-12-07T09:39:11;85206.29;;;25.43;36.17
40948;BME280;49382;-25.924;28.194;2022-12-07T09:41:39;85199.73;;;24.81;33.96
40948;BME280;49382;-25.924;28.194;2022-12-07T09:44:06;85200.40;;;25.19;35.13
40948;BME280;49382;-25.924;28.194;2022-12-07T09:46:29;85198.77;;;25.75;35.25
40948;BME280;49382;-25.924;28.194;2022-12-07T09:48:54;85201.61;;;25.60;36.11
40948;BME280;49382;-25.924;28.194;2022-12-07T09:51:22;85197.06;;;23.68;36.60
40948;BME280;49382;-25.924;28.194;2022-12-07T09:53:46;85198.67;;;25.77;35.07
40948;BME280;49382;-25.924;28.194;2022-12-07T09:56:14;85201.33;;;26.96;35.08
40948;BME280;49382;-25.924;28.194;2022-12-07T09:58:38;85190.36;;;25.86;34.42
40948;BME280;49382;-25.924;28.194;2022-12-07T10:01:11;85191.48;;;26.12;36.16
40948;BME280;49382;-25.924;28.194;2022-12-07T10:03:29;85197.91;;;26.35;34.63
40948;BME280;49382;-25.924;28.194;2022-12-07T10:05:55;85199.52;;;25.58;37.13
40948;BME280;49382;-25.924;28.194;2022-12-07T10:08:20;85199.25;;;26.52;34.88
40948;BME280;49382;-25.924;28.194;2022-12-07T10:10:49;85203.67;;;26.73;34.56
40948;BME280;49382;-25.924;28.194;2022-12-07T10:13:13;85214.77;;;27.47;34.38
40948;BME280;49382;-25.924;28.194;2022-12-07T10:15:45;85211.78;;;27.62;34.27
40948;BME280;49382;-25.924;28.194;2022-12-07T10:18:13;85214.00;;;27.34;33.77
40948;BME280;49382;-25.924;28.194;2022-12-07T10:20:29;85219.32;;;27.45;33.69
40948;BME280;49382;-25.924;28.194;2022-12-07T10:22:58;85210.92;;;27.32;33.28
40948;BME280;49382;-25.924;28.194;2022-12-07T10:25:22;85205.14;;;27.60;33.46
40948;BME280;49382;-25.924;28.194;2022-12-07T10:30:16;85182.56;;;27.26;33.78
40948;BME280;49382;-25.924;28.194;2022-12-07T10:32:38;85174.54;;;25.61;35.03
40948;BME280;49382;-25.924;28.194;2022-12-07T10:37:29;85178.62;;;27.24;32.68
40948;BME280;49382;-25.924;28.194;2022-12-07T10:39:56;85178.96;;;27.99;32.83
40948;BME280;49382;-25.924;28.194;2022-12-07T10:42:22;85178.21;;;26.69;34.06
40948;BME280;49382;-25.924;28.194;2022-12-07T10:44:47;85175.85;;;26.39;34.36
40948;BME280;49382;-25.924;28.194;2022-12-07T10:47:20;85176.17;;;26.30;33.72
40948;BME280;49382;-25.924;28.194;2022-12-07T10:49:48;85173.04;;;25.76;33.47
40948;BME280;49382;-25.924;28.194;2022-12-07T10:52:09;85167.75;;;26.90;33.52
40948;BME280;49382;-25.924;28.194;2022-12-07T10:54:36;85161.40;;;24.13;35.31
40948;BME280;49382;-25.924;28.194;2022-12-07T10:57:05;85166.91;;;26.24;33.31
40948;BME280;49382;-25.924;28.194;2022-12-07T11:01:51;85166.65;;;25.33;33.93
40948;BME280;49382;-25.924;28.194;2022-12-07T11:04:17;85167.34;;;25.07;34.10
40948;BME280;49382;-25.924;28.194;2022-12-07T11:06:41;85166.14;;;27.03;32.31
40948;BME280;49382;-25.924;28.194;2022-12-07T11:11:33;85170.31;;;27.39;33.36
40948;BME280;49382;-25.924;28.194;2022-12-07T11:13:56;85166.97;;;27.33;33.47
40948;BME280;49382;-25.924;28.194;2022-12-07T11:16:26;85168.68;;;26.74;33.60
40948;BME280;49382;-25.924;28.194;2022-12-07T11:18:52;85166.11;;;27.55;33.03
40948;BME280;49382;-25.924;28.194;2022-12-07T11:21:16;85169.49;;;27.91;33.30
40948;BME280;49382;-25.924;28.194;2022-12-07T11:23:44;85172.60;;;28.15;32.83
40948;BME280;49382;-25.924;28.194;2022-12-07T11:26:07;85171.72;;;27.88;32.90
40948;BME280;49382;-25.924;28.194;2022-12-07T11:28:39;85177.28;;;27.76;32.75
40948;BME280;49382;-25.924;28.194;2022-12-07T11:31:00;85176.19;;;26.64;33.90
40948;BME280;49382;-25.924;28.194;2022-12-07T11:33:22;85174.91;;;25.72;34.76
40948;BME280;49382;-25.924;28.194;2022-12-07T11:35:56;85170.84;;;26.35;33.69
40948;BME280;49382;-25.924;28.194;2022-12-07T11:38:13;85169.11;;;27.44;32.16
40948;BME280;49382;-25.924;28.194;2022-12-07T11:40:37;85168.05;;;27.48;32.85
40948;BME280;49382;-25.924;28.194;2022-12-07T11:43:05;85168.10;;;27.86;32.44
40948;BME280;49382;-25.924;28.194;2022-12-07T11:45:29;85165.27;;;27.64;32.73
40948;BME280;49382;-25.924;28.194;2022-12-07T11:47:56;85159.69;;;27.22;31.21
40948;BME280;49382;-25.924;28.194;2022-12-07T11:50:26;85155.95;;;25.38;33.66
40948;BME280;49382;-25.924;28.194;2022-12-07T11:52:49;85152.73;;;26.23;32.44
40948;BME280;49382;-25.924;28.194;2022-12-07T11:55:19;85154.24;;;26.98;31.90
40948;BME280;49382;-25.924;28.194;2022-12-07T11:57:39;85154.68;;;27.60;32.45
40948;BME280;49382;-25.924;28.194;2022-12-07T12:00:05;85155.39;;;27.82;32.96
40948;BME280;49382;-25.924;28.194;2022-12-07T12:02:33;85162.57;;;27.97;32.60
40948;BME280;49382;-25.924;28.194;2022-12-07T12:04:58;85156.79;;;28.20;32.20
40948;BME280;49382;-25.924;28.194;2022-12-07T12:07:23;85168.52;;;28.04;32.42
40948;BME280;49382;-25.924;28.194;2022-12-07T12:09:50;85168.90;;;28.27;31.99
40948;BME280;49382;-25.924;28.194;2022-12-07T12:12:23;85170.91;;;27.35;31.19
40948;BME280;49382;-25.924;28.194;2022-12-07T12:14:44;85173.74;;;27.54;30.19
40948;BME280;49382;-25.924;28.194;2022-12-07T12:19:33;85185.59;;;27.82;30.23
40948;BME280;49382;-25.924;28.194;2022-12-07T12:22:06;85182.36;;;25.52;31.79
40948;BME280;49382;-25.924;28.194;2022-12-07T12:24:23;85178.58;;;24.32;32.79
40948;BME280;49382;-25.924;28.194;2022-12-07T12:26:51;85185.84;;;25.11;32.17
40948;BME280;49382;-25.924;28.194;2022-12-07T12:29:19;85183.11;;;23.91;33.12
40948;BME280;49382;-25.924;28.194;2022-12-07T12:31:38;85186.11;;;24.96;32.08
40948;BME280;49382;-25.924;28.194;2022-12-07T12:34:04;85181.92;;;24.02;34.09
40948;BME280;49382;-25.924;28.194;2022-12-07T12:43:49;85178.66;;;23.84;35.32
40948;BME280;49382;-25.924;28.194;2022-12-07T12:48:37;85174.48;;;23.85;33.60
40948;BME280;49382;-25.924;28.194;2022-12-07T12:53:28;85171.29;;;23.96;32.66
40948;BME280;49382;-25.924;28.194;2022-12-07T12:58:29;85170.22;;;22.59;35.09
40948;BME280;49382;-25.924;28.194;2022-12-07T13:00:45;85169.70;;;24.55;32.93
40948;BME280;49382;-25.924;28.194;2022-12-07T13:05:36;85176.98;;;24.58;32.30
40948;BME280;49382;-25.924;28.194;2022-12-07T13:08:17;85174.66;;;23.64;33.70